Flight Track Log - Related Links

Times and Time Zones

All times are in EDT time to prevent confusion due to time zone crossing. See the RPA3356 flight status page for this flight to view local times or setup timezone preferences in your user account.

Time Position Orientation Groundspeed Altitude Reporting Facility
EDT Latitude Longitude Course Direction KTS MPH feet Rate Location/Type
Fri 05:48:15 AM 40.4847 -80.2058 308° West  Level FlightAware Approximate
Fri 05:49:15 AM 40.5005 -80.0857 281° West  Level FlightAware Approximate
Fri 05:49:56 AM 40.5297 -80.2828 80° East 182 209 3,300  Level FAA TRACON SMA TRACON (SMA)
Fri 05:50:37 AM 40.5378 -80.2250 82° East 228 262 5,100 2,850 Climbing FAA TRACON SMA TRACON (SMA)
Fri 05:51:16 AM 40.5444 -80.1622 82° East 246 283 7,100 2,354 Climbing FAA TRACON SMA TRACON (SMA)
Fri 05:51:56 AM 40.5511 -80.0992 82° East 259 298 8,200 1,571 Climbing FAA TRACON SMA TRACON (SMA)
Fri 05:52:40 AM 40.5592 -80.0264 82° East 302 348 9,300 1,926 Climbing FAA TRACON SMA TRACON (SMA)
Fri 05:53:17 AM 40.5678 -79.9444 82° East 322 371 10,800 1,816 Climbing FAA TRACON SMA TRACON (SMA)
Fri 05:53:56 AM 40.5764 -79.8628 82° East 342 394 11,600 1,367 Climbing FAA TRACON SMA TRACON (SMA)
Fri 05:54:36 AM 40.5864 -79.7714 82° East 379 436 12,600 1,778 Climbing FAA TRACON SMA TRACON (SMA)
Fri 05:55:17 AM 40.5967 -79.6719 82° East 395 455 14,000 1,852 Climbing FAA TRACON SMA TRACON (SMA)
Fri 05:55:57 AM 40.6064 -79.5781 82° East 401 461 15,100 1,823 Climbing FAA TRACON SMA TRACON (SMA)
Fri 05:56:36 AM 40.6169 -79.4789 82° East 409 471 16,400 1,747 Climbing FAA TRACON SMA TRACON (SMA)
Fri 05:57:16 AM 40.6275 -79.3736 82° East 417 480 17,400 1,259 Climbing FAA TRACON SMA TRACON (SMA)
Fri 05:57:57 AM 40.6375 -79.2742 82° East 428 493 18,100 1,425 Climbing FAA TRACON SMA TRACON (SMA)
Fri 05:58:36 AM 40.6489 -79.1639 82° East 443 510 19,300 1,519 Climbing FAA TRACON SMA TRACON (SMA)
Fri 05:59:16 AM 40.6581 -79.0786 82° East 451 519 20,100 1,402 Climbing FAA TRACON SMA TRACON (SMA)
Fri 06:00:23 AM 40.6800 -78.8828 82° East 454 522 21,800 1,465 Climbing Cleveland Center
Fri 06:01:23 AM 40.6981 -78.7072 81° East 464 534 23,200 1,355 Climbing Cleveland Center
Fri 06:03:29 AM 40.7431 -78.3289 58° Northeast 479 551 26,000 1,258 Climbing New York Center
Fri 06:04:29 AM 40.8103 -78.1881 55° Northeast 458 527 27,100 1,100 Climbing New York Center
Fri 06:05:29 AM 40.8856 -78.0481 73° East 451 519 28,200 950 Climbing New York Center
Fri 06:06:29 AM 40.9250 -77.8792 89° East 476 548 29,000 397 Climbing New York Center
Fri 06:07:30 AM 40.9267 -77.6786 90° East 493 567 29,000  Level New York Center
Fri 06:08:30 AM 40.9253 -77.4833 91° East 519 597 29,000  Level New York Center
Fri 06:09:28 AM 40.9233 -77.2939 90° East 525 604 29,000  Level New York Center
Fri 06:10:28 AM 40.9239 -77.0933 91° East 525 604 29,000 -347 Level New York Center
Fri 06:11:29 AM 40.9217 -76.8981 90° East 535 616 28,300 -1,721 Descending New York Center
Fri 06:12:30 AM 40.9208 -76.7056 91° East 535 616 25,500 -2,824 Descending New York Center
Fri 06:13:28 AM 40.9192 -76.5325 90° East 535 616 22,700 -2,672 Descending New York Center
Fri 06:14:29 AM 40.9194 -76.3511 97° East 516 594 20,200 -2,331 Descending New York Center
Fri 06:15:29 AM 40.9028 -76.1686 108° East 475 547 18,000 -2,200 Descending New York Center
Fri 06:16:29 AM 40.8694 -76.0342 107° East 434 499 15,800 -2,218 Descending New York Center
Fri 06:17:28 AM 40.8342 -75.8861 108° East 424 488 13,600 -1,400 Descending New York Center
Fri 06:18:29 AM 40.8006 -75.7464 113° Southeast 412 474 13,000 -300 Descending New York Center
Fri 06:19:28 AM 40.7528 -75.5950 112° Southeast 406 467 13,000  Level New York Center
Fri 06:20:29 AM 40.7158 -75.4775 113° Southeast 388 447 13,000  Level New York Center
Fri 06:21:29 AM 40.6711 -75.3403 112° Southeast 393 452 13,000 -102 Level New York Center
Fri 06:22:27 AM 40.6247 -75.1897 112° Southeast 399 459 12,800 -1,361 Descending New York Center
Fri 06:23:28 AM 40.5819 -75.0503 113° Southeast 409 471 10,300 -1,339 Descending New York Center
Fri 06:24:28 AM 40.5425 -74.9275 110° East 384 442 10,100 -98 Descending New York Center
Fri 06:25:30 AM 40.5072 -74.8025 113° Southeast 365 420 10,100  Level New York Center
Fri 06:26:27 AM 40.4733 -74.6969 108° East 353 406 10,100  Level New York Center
Fri 06:27:05 AM 40.4500 -74.6000 90° East 363 418 10,100 -122 Level New York TRACON
Fri 06:28:05 AM 40.4500 -74.4833 79° East 343 395 9,900 -850 Descending New York TRACON
Fri 06:29:05 AM 40.4667 -74.3667 57° Northeast 312 359 8,400 -1,556 Descending New York TRACON
Fri 06:29:53 AM 40.5000 -74.3000 52° Northeast 298 343 7,100 -722 Descending New York TRACON
Fri 06:30:53 AM 40.5500 -74.2167 52° Northeast 284 327 7,100 -500 Level New York TRACON
Fri 06:31:53 AM 40.6000 -74.1333 62° Northeast 280 322 6,100 -1,211 Descending New York TRACON
Fri 06:32:47 AM 40.6333 -74.0500 45° Northeast 258 297 4,800 -1,778 Descending New York TRACON
Fri 06:33:41 AM 40.6833 -73.9833 57° Northeast 260 299 2,900 -1,211 Descending New York TRACON
Fri 06:34:41 AM 40.7167 -73.9167 72° East 215 247 2,500 -750 Descending New York TRACON
Fri 06:35:41 AM 40.7333 -73.8500 66° East 177 204 1,400 -737 Descending New York TRACON
Fri 06:36:35 AM 40.7500 -73.8000 66° East 175 201 1,100 -333 Descending New York TRACON

Login

Don't have an account? Register now (free) for customized features, flight alerts, and more!